Time;durP1;ratioP1;P1;durP2;ratioP2;P2;SDS_P1;SDS_P2;PMS_P1;PMS_P2;Temp;Humidity;BMP_temperature;BMP_pressure;BME280_temperature;BME280_humidity;BME280_pressure;Samples;Min_cycle;Max_cycle;Signal;HPM_P1;HPM_P2
2021/11/15 00:02:00;;;;;;;56.30;35.47;;;8.60;99.90;;;;;;4971028;28;20474;-77
2021/11/15 00:04:27;;;;;;;55.70;34.28;;;8.60;99.90;;;;;;4968864;28;20051;-79
2021/11/15 00:06:55;;;;;;;57.17;35.25;;;8.60;99.90;;;;;;4971252;28;20112;-76
2021/11/15 00:09:50;;;;;;;57.40;35.17;;;8.60;99.90;;;;;;4971643;28;20045;-77
2021/11/15 00:12:18;;;;;;;53.92;33.47;;;8.50;99.90;;;;;;4971399;28;20394;-76
2021/11/15 00:14:46;;;;;;;51.90;34.88;;;8.30;99.90;;;;;;4955310;28;20141;-74
2021/11/15 00:17:13;;;;;;;53.70;35.15;;;8.30;99.90;;;;;;4972461;28;20039;-79
2021/11/15 00:19:40;;;;;;;51.63;32.45;;;8.50;99.90;;;;;;4972641;28;20061;-76
2021/11/15 00:22:07;;;;;;;58.15;33.00;;;8.40;99.90;;;;;;4972294;28;20402;-80
2021/11/15 00:24:35;;;;;;;56.75;32.47;;;8.40;99.90;;;;;;4971866;28;20047;-76
2021/11/15 00:27:03;;;;;;;49.92;33.80;;;8.50;99.90;;;;;;4966133;28;20507;-77
2021/11/15 00:29:30;;;;;;;51.45;33.42;;;8.50;99.90;;;;;;4964089;28;20434;-77
2021/11/15 00:31:58;;;;;;;45.90;30.77;;;8.50;99.90;;;;;;4957556;28;20379;-77
2021/11/15 00:34:25;;;;;;;46.05;31.15;;;8.50;99.90;;;;;;4961364;28;20051;-75
2021/11/15 00:36:52;;;;;;;42.72;29.38;;;8.60;99.90;;;;;;4971961;28;20119;-77
2021/11/15 00:39:19;;;;;;;45.42;29.58;;;8.40;99.90;;;;;;4972004;28;20043;-79
2021/11/15 00:41:47;;;;;;;49.92;31.35;;;8.50;99.90;;;;;;4972050;28;20035;-79
2021/11/15 00:44:14;;;;;;;53.47;33.13;;;8.50;99.90;;;;;;4971760;28;20047;-77
2021/11/15 00:46:41;;;;;;;48.55;32.00;;;8.40;99.90;;;;;;4963573;28;20372;-75
2021/11/15 00:49:08;;;;;;;49.83;32.17;;;8.30;99.90;;;;;;4956487;29;20047;-77
2021/11/15 00:51:36;;;;;;;50.65;33.25;;;8.40;99.90;;;;;;4956094;29;20058;-76
2021/11/15 00:54:03;;;;;;;56.72;37.70;;;8.40;99.90;;;;;;4956222;29;20054;-76
2021/11/15 00:56:30;;;;;;;64.35;38.47;;;8.10;99.90;;;;;;4956446;29;20051;-75
2021/11/15 00:58:58;;;;;;;56.97;35.67;;;8.00;99.90;;;;;;4957789;28;20047;-76
2021/11/15 01:01:25;;;;;;;59.85;35.60;;;8.10;99.90;;;;;;4975341;28;20482;-75
2021/11/15 01:03:53;;;;;;;63.08;40.15;;;8.10;99.90;;;;;;4975860;28;20512;-77
2021/11/15 01:06:20;;;;;;;69.35;43.25;;;8.30;99.90;;;;;;4975786;28;20066;-76
2021/11/15 01:08:48;;;;;;;75.85;45.55;;;8.30;99.90;;;;;;4975291;28;20048;-77
2021/11/15 01:11:15;;;;;;;73.75;45.67;;;8.30;99.90;;;;;;4975471;28;20035;-78
2021/11/15 01:13:43;;;;;;;66.95;40.78;;;8.20;99.90;;;;;;4975209;28;20046;-76
2021/11/15 01:16:10;;;;;;;67.22;43.25;;;8.30;99.90;;;;;;4975960;28;20123;-76
2021/11/15 01:18:44;;;;;;;68.18;42.58;;;8.30;99.90;;;;;;4975357;28;20043;-77
2021/11/15 01:21:12;;;;;;;71.25;43.78;;;8.30;99.90;;;;;;4975504;28;20039;-78
2021/11/15 01:23:40;;;;;;;63.13;40.90;;;8.30;99.90;;;;;;4975353;28;20438;-75
2021/11/15 01:26:08;;;;;;;62.17;39.40;;;8.30;99.90;;;;;;4981354;28;20061;-76
2021/11/15 01:28:35;;;;;;;64.38;39.75;;;8.30;99.90;;;;;;4988785;28;20521;-75
2021/11/15 01:31:03;;;;;;;60.38;39.70;;;8.20;99.90;;;;;;4975331;28;20043;-77
2021/11/15 01:33:31;;;;;;;71.93;39.08;;;8.00;99.90;;;;;;4975196;28;20054;-77
2021/11/15 01:35:58;;;;;;;57.75;37.47;;;8.10;99.90;;;;;;4974301;28;20034;-77
2021/11/15 01:38:25;;;;;;;64.82;38.20;;;8.00;99.90;;;;;;4974906;28;20430;-78
2021/11/15 01:40:53;;;;;;;61.53;37.00;;;7.90;99.90;;;;;;4958454;28;20408;-76
2021/11/15 01:43:21;;;;;;;57.40;36.13;;;8.00;99.90;;;;;;4974913;28;20043;-76
2021/11/15 01:45:48;;;;;;;54.95;36.22;;;8.10;99.90;;;;;;4975591;28;20046;-77
2021/11/15 01:48:17;;;;;;;60.53;37.35;;;8.00;99.90;;;;;;4974809;28;20505;-78
2021/11/15 01:50:45;;;;;;;63.67;38.47;;;7.90;99.90;;;;;;4975376;28;20039;-76
2021/11/15 01:53:12;;;;;;;63.95;38.35;;;7.90;99.90;;;;;;4975279;28;20418;-77
2021/11/15 01:55:41;;;;;;;56.13;38.13;;;7.90;99.90;;;;;;4974472;28;20034;-76
2021/11/15 01:58:10;;;;;;;59.83;37.08;;;7.80;99.90;;;;;;4974523;28;20113;-75
2021/11/15 02:00:50;;;;;;;55.63;37.13;;;7.80;99.90;;;;;;4975256;28;20144;-77
2021/11/15 02:03:19;;;;;;;54.72;37.05;;;7.70;99.90;;;;;;4975137;28;20042;-77
2021/11/15 02:05:47;;;;;;;53.50;36.50;;;7.70;99.90;;;;;;4973890;28;20054;-78
2021/11/15 02:08:15;;;;;;;56.45;37.10;;;7.70;99.90;;;;;;4974512;28;20049;-77
2021/11/15 02:10:43;;;;;;;59.15;36.45;;;7.70;99.90;;;;;;4974726;28;20046;-78
2021/11/15 02:13:14;;;;;;;58.85;37.97;;;7.60;99.90;;;;;;4974422;28;20402;-77
2021/11/15 02:15:42;;;;;;;59.55;38.78;;;7.60;99.90;;;;;;4974859;28;20470;-76
2021/11/15 02:18:09;;;;;;;57.75;36.92;;;7.70;99.90;;;;;;4974626;28;20126;-77
2021/11/15 02:20:49;;;;;;;64.15;40.13;;;7.80;99.90;;;;;;4974508;28;20049;-74
2021/11/15 02:23:17;;;;;;;61.97;37.60;;;7.70;99.90;;;;;;4974413;28;20047;-74
2021/11/15 02:25:47;;;;;;;62.30;38.92;;;7.60;99.90;;;;;;4973585;28;20066;-75
2021/11/15 02:28:15;;;;;;;56.63;37.53;;;7.40;99.90;;;;;;4973757;28;20046;-76
2021/11/15 02:30:43;;;;;;;59.70;37.80;;;7.50;99.90;;;;;;4974420;28;20046;-76
2021/11/15 02:33:11;;;;;;;65.18;39.15;;;7.40;99.90;;;;;;4973937;28;20458;-76
2021/11/15 02:35:39;;;;;;;64.57;39.33;;;7.50;99.90;;;;;;4974125;28;20051;-74
2021/11/15 02:38:07;;;;;;;67.78;39.50;;;7.50;99.90;;;;;;4956748;28;20050;-76
2021/11/15 02:40:34;;;;;;;64.05;37.78;;;7.60;99.90;;;;;;4956546;28;20039;-75
2021/11/15 02:43:02;;;;;;;57.75;36.88;;;7.60;99.90;;;;;;4973887;28;20069;-76
2021/11/15 02:45:29;;;;;;;60.22;37.10;;;7.60;99.90;;;;;;4973980;28;20046;-75
2021/11/15 02:47:57;;;;;;;56.13;38.63;;;7.60;99.90;;;;;;4973588;28;20039;-76
2021/11/15 02:50:28;;;;;;;62.83;37.75;;;7.50;99.90;;;;;;4974049;28;20049;-74
2021/11/15 02:52:59;;;;;;;59.53;38.67;;;7.40;99.90;;;;;;4973277;28;20053;-76
2021/11/15 02:55:28;;;;;;;58.10;37.88;;;7.30;99.90;;;;;;4973602;28;20086;-74
2021/11/15 02:57:57;;;;;;;64.15;39.90;;;7.40;99.90;;;;;;4973320;28;20453;-78
2021/11/15 03:00:29;;;;;;;61.10;39.55;;;7.30;99.90;;;;;;4974071;28;20045;-77
2021/11/15 03:02:57;;;;;;;68.80;39.22;;;7.10;99.90;;;;;;4973625;28;20042;-77
2021/11/15 03:05:34;;;;;;;62.72;37.70;;;7.20;99.90;;;;;;4974022;28;20089;-77
2021/11/15 03:08:04;;;;;;;60.33;37.50;;;7.20;99.90;;;;;;4973402;28;20051;-76
2021/11/15 03:10:32;;;;;;;53.35;36.30;;;7.10;99.90;;;;;;4973112;28;20066;-75
2021/11/15 03:13:02;;;;;;;61.88;38.97;;;7.10;99.90;;;;;;4965563;28;20463;-77
2021/11/15 03:15:32;;;;;;;63.85;38.30;;;7.20;99.90;;;;;;4973596;28;20049;-77
2021/11/15 03:18:06;;;;;;;57.13;36.58;;;7.30;99.90;;;;;;4956225;28;20058;-76
2021/11/15 03:20:38;;;;;;;54.20;34.70;;;7.20;99.90;;;;;;4973402;28;20043;-76
2021/11/15 03:23:08;;;;;;;50.05;30.92;;;7.00;99.90;;;;;;4972811;28;20049;-76
2021/11/15 03:25:35;;;;;;;39.80;26.47;;;7.00;99.90;;;;;;4972756;28;20046;-76
2021/11/15 03:28:04;;;;;;;43.10;28.17;;;7.00;99.90;;;;;;4965369;28;20301;-77
2021/11/15 03:30:31;;;;;;;48.20;31.10;;;7.00;99.90;;;;;;4954600;29;20047;-75
2021/11/15 03:32:59;;;;;;;49.17;29.25;;;6.90;99.90;;;;;;4952751;29;20090;-75
2021/11/15 03:35:27;;;;;;;47.97;31.17;;;6.90;99.90;;;;;;4952146;29;20063;-75
2021/11/15 03:37:55;;;;;;;46.60;30.35;;;6.50;99.90;;;;;;4953129;29;20054;-74
2021/11/15 03:40:25;;;;;;;52.33;31.55;;;6.40;99.90;;;;;;4953406;29;20457;-74
2021/11/15 03:42:58;;;;;;;46.38;30.60;;;6.60;99.90;;;;;;4953517;29;20647;-76
2021/11/15 03:45:27;;;;;;;48.78;30.20;;;6.60;99.90;;;;;;4953759;29;20054;-74
2021/11/15 03:47:55;;;;;;;43.05;28.55;;;6.70;99.90;;;;;;4953335;29;20513;-77
2021/11/15 03:50:24;;;;;;;46.28;28.45;;;6.60;99.90;;;;;;4953492;29;20074;-73
2021/11/15 03:52:53;;;;;;;52.35;30.23;;;6.70;99.90;;;;;;4953190;29;20063;-74
2021/11/15 03:55:22;;;;;;;41.08;28.40;;;6.60;99.90;;;;;;4953501;29;20411;-75
2021/11/15 03:57:49;;;;;;;45.90;28.85;;;6.60;99.90;;;;;;4952813;29;20043;-75
2021/11/15 04:00:20;;;;;;;46.85;29.70;;;6.70;99.90;;;;;;4961828;28;20105;-76
2021/11/15 04:02:53;;;;;;;49.20;29.27;;;6.70;99.90;;;;;;4972144;28;20043;-74
2021/11/15 04:05:31;;;;;;;47.28;28.63;;;6.80;99.90;;;;;;4971814;28;20043;-75
2021/11/15 04:08:03;;;;;;;47.55;29.70;;;6.80;99.90;;;;;;4971579;28;20055;-75
2021/11/15 04:10:43;;;;;;;49.70;30.08;;;6.40;99.90;;;;;;4971700;28;20038;-75
2021/11/15 04:13:18;;;;;;;45.03;28.17;;;6.50;99.90;;;;;;4971950;28;20051;-75
2021/11/15 04:15:48;;;;;;;42.22;28.05;;;6.60;99.90;;;;;;4972567;28;20038;-75
2021/11/15 04:18:17;;;;;;;43.00;27.63;;;6.40;99.90;;;;;;4972057;28;20050;-74
2021/11/15 04:20:45;;;;;;;40.70;27.60;;;6.60;99.90;;;;;;4973092;28;20046;-73
2021/11/15 04:23:12;;;;;;;41.35;26.83;;;6.70;99.90;;;;;;4975282;28;20054;-75
2021/11/15 04:25:39;;;;;;;35.85;25.90;;;6.70;99.90;;;;;;4975884;28;20093;-74
2021/11/15 04:28:07;;;;;;;38.72;26.38;;;6.70;99.90;;;;;;4969364;28;20058;-75
2021/11/15 04:30:35;;;;;;;43.65;26.63;;;6.70;99.90;;;;;;4956802;29;20047;-75
2021/11/15 04:33:04;;;;;;;44.47;26.20;;;6.60;99.90;;;;;;4939761;29;20062;-74
2021/11/15 04:35:31;;;;;;;37.67;25.45;;;6.70;99.90;;;;;;4940131;29;20176;-72
2021/11/15 04:38:02;;;;;;;42.40;25.98;;;6.80;99.90;;;;;;4956650;29;20048;-76
2021/11/15 04:40:30;;;;;;;38.45;26.48;;;6.90;99.90;;;;;;4956824;29;20046;-76
2021/11/15 04:42:58;;;;;;;37.85;25.33;;;6.90;99.90;;;;;;4956997;29;20051;-76
2021/11/15 04:45:26;;;;;;;36.28;25.40;;;7.00;99.90;;;;;;4957273;29;20096;-78
2021/11/15 04:47:54;;;;;;;39.22;26.65;;;7.10;99.90;;;;;;4956052;29;20073;-77
2021/11/15 04:50:21;;;;;;;40.08;26.73;;;7.10;99.90;;;;;;4956801;29;20057;-75
2021/11/15 04:52:49;;;;;;;42.65;27.10;;;7.10;99.90;;;;;;4956821;29;20051;-74
2021/11/15 04:55:21;;;;;;;42.33;26.77;;;7.10;99.90;;;;;;4956439;29;20047;-74
2021/11/15 04:57:49;;;;;;;39.65;25.60;;;7.00;99.90;;;;;;4956643;29;20051;-76
2021/11/15 05:00:20;;;;;;;37.50;25.27;;;6.80;99.90;;;;;;4956253;29;20398;-76
2021/11/15 05:02:48;;;;;;;37.63;26.70;;;6.80;99.90;;;;;;4956171;29;20051;-76
2021/11/15 05:05:17;;;;;;;35.58;24.73;;;6.90;99.90;;;;;;4956047;29;20043;-76
2021/11/15 05:07:46;;;;;;;40.70;25.23;;;7.00;99.90;;;;;;4955798;29;20486;-78
2021/11/15 05:10:14;;;;;;;39.17;23.95;;;7.10;99.90;;;;;;4939315;29;20051;-74
2021/11/15 05:12:41;;;;;;;39.45;24.65;;;7.10;99.90;;;;;;4955571;29;20043;-74
2021/11/15 05:15:12;;;;;;;38.53;24.20;;;7.20;99.90;;;;;;4955308;29;20066;-74
2021/11/15 05:17:40;;;;;;;36.10;24.90;;;7.00;99.90;;;;;;4948017;29;20476;-76
2021/11/15 05:20:08;;;;;;;35.03;23.92;;;6.70;99.90;;;;;;4956254;29;20403;-75
2021/11/15 05:22:37;;;;;;;39.10;25.35;;;6.90;99.90;;;;;;4938620;29;20502;-75
2021/11/15 05:25:06;;;;;;;36.75;25.85;;;6.70;99.90;;;;;;4956110;28;20039;-76
2021/11/15 05:27:34;;;;;;;42.88;26.67;;;6.60;99.90;;;;;;4973072;28;20101;-76
2021/11/15 05:30:06;;;;;;;43.03;27.05;;;6.30;99.90;;;;;;4994948;28;20551;-74
2021/11/15 05:32:34;;;;;;;34.33;24.23;;;6.40;99.90;;;;;;4993591;28;20047;-75
2021/11/15 05:35:01;;;;;;;43.53;27.35;;;6.10;99.90;;;;;;4994284;28;20042;-75
2021/11/15 05:37:29;;;;;;;38.47;25.85;;;6.20;99.90;;;;;;4994433;28;20121;-75
2021/11/15 05:39:56;;;;;;;42.08;26.63;;;6.20;99.90;;;;;;4994119;28;20042;-73
2021/11/15 05:42:23;;;;;;;39.30;26.70;;;5.90;99.90;;;;;;4994248;28;20042;-75
2021/11/15 05:44:52;;;;;;;35.80;24.98;;;6.10;99.90;;;;;;4994927;28;20050;-75
2021/11/15 05:47:19;;;;;;;42.00;27.23;;;6.10;99.90;;;;;;4994301;28;20481;-78
2021/11/15 05:49:46;;;;;;;38.67;25.10;;;6.20;99.90;;;;;;4994275;28;20046;-76
2021/11/15 05:52:16;;;;;;;40.33;28.15;;;6.40;99.90;;;;;;4994219;28;20053;-77
2021/11/15 05:54:44;;;;;;;42.87;27.17;;;6.60;99.90;;;;;;4994250;28;20421;-75
2021/11/15 05:57:11;;;;;;;48.65;27.33;;;6.80;99.90;;;;;;4993778;28;20042;-77
2021/11/15 05:59:38;;;;;;;49.00;29.15;;;6.20;99.90;;;;;;4993648;28;20042;-75
2021/11/15 06:02:05;;;;;;;55.47;35.85;;;6.50;99.90;;;;;;4994094;28;20489;-77
2021/11/15 06:04:33;;;;;;;65.47;39.78;;;7.20;99.90;;;;;;4994061;28;20038;-74
2021/11/15 06:07:01;;;;;;;105.18;62.13;;;7.30;99.90;;;;;;4993550;28;20046;-76
2021/11/15 06:09:29;;;;;;;56.05;34.78;;;7.40;99.90;;;;;;4993583;28;20049;-75
2021/11/15 06:11:56;;;;;;;45.10;29.40;;;7.40;99.90;;;;;;4991329;28;20398;-74
2021/11/15 06:14:24;;;;;;;44.92;28.92;;;7.40;99.90;;;;;;4993229;28;20505;-73
2021/11/15 06:16:51;;;;;;;45.80;28.20;;;7.40;99.90;;;;;;4992976;28;20054;-74
2021/11/15 06:19:18;;;;;;;45.83;28.20;;;7.50;99.90;;;;;;4978299;28;20401;-73
2021/11/15 06:21:45;;;;;;;46.42;27.48;;;7.30;99.90;;;;;;4983983;28;20414;-75
2021/11/15 06:24:13;;;;;;;44.47;28.92;;;7.10;99.90;;;;;;4981900;28;20047;-72
2021/11/15 06:26:42;;;;;;;48.55;27.67;;;7.00;99.90;;;;;;4980833;28;20058;-77
2021/11/15 06:29:11;;;;;;;44.22;27.25;;;6.60;99.90;;;;;;4988879;28;20056;-73
2021/11/15 06:31:38;;;;;;;45.17;26.65;;;6.70;99.90;;;;;;4982890;28;20038;-76
2021/11/15 06:34:06;;;;;;;41.78;27.63;;;6.70;99.90;;;;;;4982596;28;20129;-75
2021/11/15 06:36:33;;;;;;;43.85;26.73;;;6.90;99.90;;;;;;4981499;28;20048;-75
2021/11/15 06:39:00;;;;;;;45.28;27.50;;;6.90;99.90;;;;;;4989163;28;20430;-74
2021/11/15 06:41:28;;;;;;;43.15;26.55;;;6.90;99.90;;;;;;4980698;28;20487;-75
2021/11/15 06:43:56;;;;;;;40.00;26.80;;;7.10;99.90;;;;;;4973388;28;20049;-75
2021/11/15 06:46:30;;;;;;;42.83;26.92;;;7.10;99.90;;;;;;4973185;28;20125;-74
2021/11/15 06:48:58;;;;;;;44.08;28.27;;;7.30;99.90;;;;;;4972572;28;20043;-76
2021/11/15 06:51:41;;;;;;;41.63;28.48;;;7.10;99.90;;;;;;4973538;28;20066;-80
2021/11/15 06:54:14;;;;;;;43.13;29.08;;;7.30;99.90;;;;;;4971836;28;20046;-75
2021/11/15 06:56:41;;;;;;;43.30;28.08;;;7.60;99.90;;;;;;4973387;28;20060;-76
2021/11/15 06:59:09;;;;;;;47.10;28.92;;;7.70;99.90;;;;;;4973038;28;20058;-75
2021/11/15 07:01:37;;;;;;;42.88;29.33;;;7.70;99.90;;;;;;4973127;28;20620;-75
2021/11/15 07:04:06;;;;;;;47.90;28.50;;;7.80;99.90;;;;;;4973224;28;20038;-75
2021/11/15 07:06:34;;;;;;;44.72;29.20;;;7.70;99.90;;;;;;4973108;28;20077;-76
2021/11/15 07:09:03;;;;;;;40.47;28.40;;;7.70;99.90;;;;;;4972612;28;20098;-75
2021/11/15 07:11:31;;;;;;;41.75;29.40;;;7.70;99.90;;;;;;4972061;28;20042;-73
2021/11/15 07:13:58;;;;;;;49.97;34.00;;;7.70;99.90;;;;;;4971792;28;20042;-75
2021/11/15 07:16:26;;;;;;;59.15;38.72;;;7.70;99.90;;;;;;4973301;28;20070;-74
2021/11/15 07:18:54;;;;;;;59.47;40.10;;;7.70;99.90;;;;;;4971112;28;20030;-74
2021/11/15 07:21:23;;;;;;;65.43;40.05;;;7.70;99.90;;;;;;4970419;28;20042;-75
2021/11/15 07:23:53;;;;;;;60.45;40.42;;;7.80;99.90;;;;;;4970524;28;20490;-77
2021/11/15 07:26:22;;;;;;;51.00;34.58;;;7.80;99.90;;;;;;4970551;28;20073;-74
2021/11/15 07:28:51;;;;;;;49.55;33.78;;;7.80;99.90;;;;;;4978281;28;20074;-75
2021/11/15 07:31:18;;;;;;;53.78;33.80;;;7.80;99.90;;;;;;4990899;28;20050;-76
2021/11/15 07:33:46;;;;;;;48.70;33.72;;;7.60;99.90;;;;;;4991462;28;20079;-75
2021/11/15 07:36:14;;;;;;;53.25;32.55;;;7.60;99.90;;;;;;4992097;28;20042;-75
2021/11/15 07:38:41;;;;;;;50.95;32.88;;;7.50;99.90;;;;;;4991876;28;20081;-76
2021/11/15 07:41:08;;;;;;;55.67;32.53;;;7.50;99.90;;;;;;4992092;28;20038;-76
2021/11/15 07:43:35;;;;;;;48.15;32.40;;;7.40;99.90;;;;;;4991854;28;20046;-74
2021/11/15 07:46:03;;;;;;;56.25;33.13;;;7.40;99.90;;;;;;4992342;28;20057;-75
2021/11/15 07:48:30;;;;;;;52.38;32.45;;;7.40;99.90;;;;;;4991488;28;20049;-76
2021/11/15 07:51:00;;;;;;;49.10;31.77;;;7.50;99.90;;;;;;4991578;28;20394;-75
2021/11/15 07:53:30;;;;;;;51.30;32.38;;;7.50;99.90;;;;;;4991196;28;20438;-75
2021/11/15 07:55:57;;;;;;;44.60;31.50;;;7.60;99.90;;;;;;4991141;28;20046;-75
2021/11/15 07:58:24;;;;;;;51.75;33.22;;;7.70;99.90;;;;;;4990514;28;20046;-76
2021/11/15 08:00:52;;;;;;;52.60;32.90;;;7.90;99.90;;;;;;4983814;28;20420;-75
2021/11/15 08:03:19;;;;;;;51.53;32.80;;;8.00;99.90;;;;;;4971287;28;20073;-76
2021/11/15 08:05:47;;;;;;;57.00;34.25;;;8.00;99.90;;;;;;4971847;28;20042;-77
2021/11/15 08:08:14;;;;;;;50.53;32.90;;;7.90;99.90;;;;;;4971546;28;20164;-77
2021/11/15 08:10:41;;;;;;;50.88;33.65;;;7.90;99.90;;;;;;4972199;28;20391;-76
2021/11/15 08:13:09;;;;;;;48.05;32.75;;;8.10;99.90;;;;;;4986272;28;20042;-75
2021/11/15 08:15:36;;;;;;;50.85;34.15;;;8.30;99.90;;;;;;4972558;28;20046;-75
2021/11/15 08:18:05;;;;;;;52.03;34.35;;;8.30;99.90;;;;;;4972027;28;20514;-75
2021/11/15 08:20:38;;;;;;;48.65;32.15;;;8.50;99.90;;;;;;4972164;28;20434;-76
2021/11/15 08:23:10;;;;;;;58.00;33.38;;;8.60;99.90;;;;;;4970357;28;20502;-77
2021/11/15 08:26:01;;;;;;;58.33;33.90;;;8.50;99.90;;;;;;4972055;28;20395;-76
2021/11/15 08:28:29;;;;;;;52.42;33.17;;;8.70;99.90;;;;;;4974315;28;20042;-77
2021/11/15 08:31:00;;;;;;;55.42;35.83;;;8.80;99.90;;;;;;4991740;28;20405;-78
2021/11/15 08:33:28;;;;;;;48.92;34.50;;;8.80;99.90;;;;;;4991325;28;20402;-76
2021/11/15 08:35:57;;;;;;;53.08;34.20;;;8.80;99.90;;;;;;4991275;28;20038;-77
2021/11/15 08:38:46;;;;;;;48.70;32.88;;;8.80;99.90;;;;;;4991232;28;20442;-77
2021/11/15 08:41:17;;;;;;;53.85;33.05;;;8.90;99.90;;;;;;4990625;28;20064;-75
2021/11/15 08:43:51;;;;;;;54.45;34.22;;;8.90;99.90;;;;;;4982640;28;20446;-75
2021/11/15 08:46:19;;;;;;;51.42;35.35;;;8.90;99.90;;;;;;4981370;28;20045;-77
2021/11/15 08:48:48;;;;;;;53.25;34.97;;;8.90;99.90;;;;;;4982044;28;20049;-80
2021/11/15 08:51:20;;;;;;;52.35;34.83;;;9.10;99.90;;;;;;4980441;28;20038;-76
2021/11/15 08:53:49;;;;;;;56.58;34.28;;;9.40;99.90;;;;;;4982726;28;20035;-76
2021/11/15 08:56:18;;;;;;;59.95;36.28;;;9.60;99.90;;;;;;4980083;28;20050;-74
2021/11/15 08:58:59;;;;;;;50.80;34.65;;;9.80;99.90;;;;;;4980770;28;20134;-78
2021/11/15 09:01:27;;;;;;;57.70;36.45;;;9.60;99.90;;;;;;4980427;28;20051;-79
2021/11/15 09:03:55;;;;;;;61.63;37.53;;;9.50;99.90;;;;;;4982275;28;20038;-79
2021/11/15 09:06:29;;;;;;;56.17;37.97;;;9.40;99.90;;;;;;4984548;28;20046;-80
2021/11/15 09:08:57;;;;;;;62.60;37.67;;;9.10;99.90;;;;;;4992420;28;20534;-77
2021/11/15 09:11:24;;;;;;;52.42;36.13;;;9.10;99.90;;;;;;4995208;28;20405;-78
2021/11/15 09:13:51;;;;;;;59.83;36.85;;;9.10;99.90;;;;;;4995017;28;20417;-77
2021/11/15 09:16:21;;;;;;;56.83;37.72;;;9.30;99.90;;;;;;4994481;28;20046;-79
2021/11/15 09:18:49;;;;;;;56.65;39.47;;;9.50;99.90;;;;;;4993746;28;20073;-78
2021/11/15 09:21:17;;;;;;;51.10;35.53;;;9.50;99.90;;;;;;4994760;28;20047;-77
2021/11/15 09:23:47;;;;;;;62.13;36.55;;;9.30;99.90;;;;;;4988733;28;20109;-75
2021/11/15 09:26:18;;;;;;;53.42;36.90;;;9.40;99.90;;;;;;4983667;28;20054;-76
2021/11/15 09:28:46;;;;;;;59.75;38.50;;;9.40;99.90;;;;;;4982362;28;20045;-80
2021/11/15 09:31:13;;;;;;;56.08;38.13;;;9.50;99.90;;;;;;5006344;28;20046;-78
2021/11/15 09:33:41;;;;;;;53.60;36.53;;;9.50;99.90;;;;;;4984253;28;20062;-77
2021/11/15 09:36:09;;;;;;;58.60;38.50;;;9.40;99.90;;;;;;4994557;28;20453;-81
2021/11/15 09:38:43;;;;;;;54.13;36.88;;;9.50;99.90;;;;;;4993676;28;20394;-81
2021/11/15 09:41:11;;;;;;;60.72;39.05;;;9.50;99.90;;;;;;4993443;28;20535;-81
2021/11/15 09:43:38;;;;;;;61.20;38.58;;;9.40;99.90;;;;;;4994219;28;20100;-80
2021/11/15 09:46:14;;;;;;;63.10;40.70;;;9.50;99.90;;;;;;4994453;28;20038;-82
2021/11/15 09:48:45;;;;;;;66.82;41.30;;;9.70;99.90;;;;;;4988854;28;20062;-82
2021/11/15 09:51:15;;;;;;;;;;;9.70;99.90;;;;;;4985522;28;20049;-82
2021/11/15 09:53:46;;;;;;;62.20;38.25;;;9.70;99.90;;;;;;4949984;28;19933;-82
2021/11/15 09:56:14;;;;;;;68.82;43.35;;;9.80;99.90;;;;;;4983395;28;20043;-82
2021/11/15 09:58:44;;;;;;;67.03;44.45;;;9.90;99.90;;;;;;4983689;28;20121;-81
2021/11/15 10:01:12;;;;;;;71.20;45.40;;;9.90;99.90;;;;;;4983650;28;20367;-82
2021/11/15 10:03:40;;;;;;;68.28;43.42;;;9.90;99.90;;;;;;4975283;28;20133;-83
2021/11/15 10:06:08;;;;;;;60.20;41.78;;;10.10;99.90;;;;;;4973819;28;20042;-81
2021/11/15 10:08:45;;;;;;;69.28;44.13;;;10.30;99.90;;;;;;4977969;28;20537;-80
2021/11/15 10:11:13;;;;;;;66.85;41.65;;;10.40;99.90;;;;;;4978502;28;20402;-83
2021/11/15 10:13:50;;;;;;;61.80;41.50;;;10.60;99.90;;;;;;4977511;28;20042;-89
2021/11/15 10:16:26;;;;;;;63.42;42.38;;;11.00;99.90;;;;;;4999015;28;20057;-88
2021/11/15 10:19:01;;;;;;;63.45;42.90;;;11.50;99.90;;;;;;5001128;28;20046;-87
2021/11/15 10:21:59;;;;;;;66.60;41.65;;;12.00;99.90;;;;;;5012000;28;20056;-84
2021/11/15 10:24:32;;;;;;;58.75;40.22;;;12.50;99.90;;;;;;4995704;28;20049;-89
2021/11/15 10:27:11;;;;;;;56.35;38.78;;;12.90;99.90;;;;;;4997063;28;20056;-89
2021/11/15 10:29:53;;;;;;;56.30;38.47;;;13.30;99.90;;;;;;4989152;28;20042;-89
2021/11/15 10:32:50;;;;;;;57.45;37.97;;;13.40;99.90;;;;;;5006241;28;20073;-91
2021/11/15 10:35:21;;;;;;;53.92;37.30;;;13.70;99.90;;;;;;5000759;28;20042;-87
2021/11/15 10:37:51;;;;;;;;;;;13.80;99.90;;;;;;4995325;28;20078;-87
2021/11/15 10:40:37;;;;;;;53.65;36.72;;;14.00;99.90;;;;;;4991119;28;20520;-90
2021/11/15 10:44:12;;;;;;;51.45;35.58;;;14.20;99.90;;;;;;5000396;28;20054;-94
2021/11/15 10:46:41;;;;;;;47.97;31.08;;;14.40;99.90;;;;;;4996537;28;20542;-82
2021/11/15 10:49:37;;;;;;;45.45;30.85;;;14.40;99.90;;;;;;5012097;28;20043;-86
2021/11/15 10:52:09;;;;;;;38.20;24.73;;;14.60;99.90;;;;;;4981418;28;20541;-88
2021/11/15 10:57:51;;;;;;;32.67;21.25;;;15.30;99.90;;;;;;4998486;28;20461;-91
2021/11/15 11:00:35;;;;;;;40.40;23.23;;;15.30;99.90;;;;;;4988070;28;20034;-82
2021/11/15 11:03:10;;;;;;;33.30;20.25;;;15.20;99.90;;;;;;4974626;28;20426;-84
2021/11/15 11:05:41;;;;;;;28.75;18.52;;;15.10;99.90;;;;;;4975939;28;20500;-83
2021/11/15 11:08:26;;;;;;;30.52;19.13;;;14.90;99.90;;;;;;4973593;28;20039;-80
2021/11/15 11:11:02;;;;;;;27.42;18.42;;;15.40;99.90;;;;;;4975610;28;20057;-82
2021/11/15 11:14:04;;;;;;;30.48;19.98;;;15.60;99.90;;;;;;4992700;28;20117;-82
2021/11/15 11:16:45;;;;;;;29.77;20.80;;;15.90;99.90;;;;;;4961364;28;20089;-86
2021/11/15 11:19:32;;;;;;;28.20;20.90;;;15.40;99.90;;;;;;4992437;28;20038;-87
2021/11/15 11:27:28;;;;;;;36.15;21.98;;;16.10;99.90;;;;;;4992577;28;20121;-83
2021/11/15 11:29:57;;;;;;;38.90;21.52;;;16.00;99.90;;;;;;4972515;28;20050;-82
2021/11/15 11:32:28;;;;;;;31.98;21.10;;;15.70;99.90;;;;;;4971259;28;20329;-81
2021/11/15 11:34:59;;;;;;;29.45;19.75;;;15.50;99.90;;;;;;4971718;28;20043;-84
2021/11/15 11:37:29;;;;;;;30.98;21.08;;;15.90;99.90;;;;;;4971239;28;20509;-79
2021/11/15 11:39:59;;;;;;;32.43;20.37;;;15.90;99.90;;;;;;4971893;28;20038;-81
2021/11/15 11:42:27;;;;;;;32.30;19.88;;;16.40;99.90;;;;;;4971648;28;20719;-77
2021/11/15 11:44:55;;;;;;;27.98;18.55;;;16.70;99.70;;;;;;4972306;28;20042;-79
2021/11/15 11:47:27;;;;;;;30.85;20.25;;;17.30;98.90;;;;;;4972660;28;20122;-79
2021/11/15 11:49:59;;;;;;;29.13;19.38;;;17.60;97.90;;;;;;4972599;28;20153;-77
2021/11/15 11:52:29;;;;;;;33.75;20.63;;;17.20;97.50;;;;;;4972614;28;20047;-80
2021/11/15 11:54:57;;;;;;;26.35;17.73;;;16.60;98.50;;;;;;4971876;28;20047;-78
2021/11/15 11:57:31;;;;;;;23.77;17.40;;;16.90;98.20;;;;;;4973242;28;20404;-81
2021/11/15 12:00:00;;;;;;;31.27;17.77;;;17.20;97.90;;;;;;4972227;28;20101;-84
2021/11/15 12:02:31;;;;;;;24.05;16.65;;;16.90;96.90;;;;;;4971794;28;20402;-84
2021/11/15 12:05:07;;;;;;;30.33;17.65;;;16.70;98.70;;;;;;4973212;28;20043;-85
2021/11/15 12:07:38;;;;;;;22.17;17.33;;;17.40;98.20;;;;;;4973390;28;20057;-84
2021/11/15 12:10:11;;;;;;;31.48;17.90;;;17.30;98.30;;;;;;4974611;28;20372;-87
2021/11/15 12:12:53;;;;;;;25.63;16.35;;;17.30;96.80;;;;;;4974845;28;20043;-92
2021/11/15 12:16:00;;;;;;;25.90;17.30;;;17.10;96.60;;;;;;4974188;28;20509;-84
2021/11/15 12:18:33;;;;;;;26.27;17.08;;;17.00;96.70;;;;;;4973673;28;20053;-82
2021/11/15 12:21:04;;;;;;;28.52;17.27;;;17.20;96.60;;;;;;4973346;28;20046;-85
2021/11/15 12:23:31;;;;;;;;;;;17.30;96.10;;;;;;4973888;28;20474;-88
2021/11/15 12:26:15;;;;;;;22.40;15.95;;;17.10;96.40;;;;;;4974388;28;20390;-83
2021/11/15 12:28:46;;;;;;;23.95;15.93;;;17.20;96.20;;;;;;4979669;28;20445;-86
2021/11/15 12:31:15;;;;;;;23.90;15.98;;;17.40;95.30;;;;;;4992444;28;20074;-84
2021/11/15 12:33:43;;;;;;;22.25;15.02;;;18.40;93.80;;;;;;4992701;28;20401;-83
2021/11/15 12:36:20;;;;;;;20.77;15.90;;;19.30;90.30;;;;;;4975908;28;20430;-86
2021/11/15 12:39:00;;;;;;;26.45;15.95;;;20.90;83.80;;;;;;4974993;28;20375;-85
2021/11/15 12:41:29;;;;;;;;;;;22.00;77.10;;;;;;4994473;28;20042;-83
2021/11/15 12:44:05;;;;;;;21.98;15.75;;;22.90;73.30;;;;;;4995504;28;19922;-88
2021/11/15 12:46:48;;;;;;;21.92;16.00;;;23.40;70.00;;;;;;4996534;28;20039;-86
2021/11/15 12:49:33;;;;;;;26.00;16.90;;;23.00;71.00;;;;;;4979694;28;20410;-88
2021/11/15 12:52:44;;;;;;;26.83;17.92;;;22.80;69.70;;;;;;5000093;28;20502;-86
2021/11/15 12:55:37;;;;;;;24.55;17.17;;;22.80;68.40;;;;;;4999545;28;20121;-90
2021/11/15 12:58:16;;;;;;;22.73;17.02;;;22.30;69.00;;;;;;4989930;28;20137;-90
2021/11/15 13:00:56;;;;;;;26.90;16.05;;;20.00;75.70;;;;;;4981125;28;20517;-91
2021/11/15 13:03:52;;;;;;;24.27;16.73;;;19.10;81.10;;;;;;4997371;28;20078;-88